UAL6242 KSFO-KSAN
Flight info
| Callsign | UAL6242 |
|---|---|
| Flight time | N/A |
| Altitude | 35000 |
| Route | WESLA5 YYUNG LAX COMIX2 |
| Aircraft | B38M/M-SDE1FGHILORVWXY/HB1 |
Departure
| Time | N/A |
|---|---|
| Airport | San Francisco International Airport (KSFO) |
Arrival
| Time | 2026-04-24 19:08 |
|---|---|
| Airport | San Diego International Airport (KSAN) |
| Time | Latitude | Longitude | Altitude | Speed | Heading |
|---|---|---|---|---|---|
| 2026-04-24 18:54 | 33.12868 | -117.47652 | 14771 ft | 338 kts | 151° |
| 2026-04-24 18:55 | 33.09029 | -117.44755 | 13908 ft | 318 kts | 154° |
| 2026-04-24 18:55 | 33.07232 | -117.43200 | 13280 ft | 319 kts | 147° |
| 2026-04-24 18:55 | 33.05466 | -117.41613 | 12642 ft | 316 kts | 147° |
| 2026-04-24 18:56 | 33.03698 | -117.40069 | 12011 ft | 314 kts | 148° |
| 2026-04-24 18:56 | 33.01923 | -117.38545 | 11397 ft | 313 kts | 148° |
| 2026-04-24 18:56 | 33.00195 | -117.37075 | 10982 ft | 305 kts | 148° |
| 2026-04-24 18:56 | 32.98483 | -117.35630 | 10611 ft | 298 kts | 148° |
| 2026-04-24 18:57 | 32.96802 | -117.34217 | 10258 ft | 294 kts | 148° |
| 2026-04-24 18:57 | 32.95145 | -117.32827 | 9906 ft | 288 kts | 147° |
| 2026-04-24 18:57 | 32.93532 | -117.31475 | 9503 ft | 280 kts | 148° |
| 2026-04-24 18:57 | 32.91954 | -117.30156 | 9115 ft | 273 kts | 148° |
| 2026-04-24 18:58 | 32.90412 | -117.28874 | 8735 ft | 267 kts | 148° |
| 2026-04-24 18:58 | 32.88930 | -117.27641 | 8443 ft | 255 kts | 148° |
| 2026-04-24 18:58 | 32.87973 | -117.26846 | 8221 ft | 251 kts | 148° |
| 2026-04-24 18:58 | 32.86555 | -117.25665 | 7846 ft | 248 kts | 147° |
| 2026-04-24 18:59 | 32.85146 | -117.24495 | 7486 ft | 245 kts | 147° |
| 2026-04-24 18:59 | 32.83753 | -117.23339 | 7111 ft | 244 kts | 147° |
| 2026-04-24 18:59 | 32.82371 | -117.22180 | 6741 ft | 242 kts | 144° |
| 2026-04-24 18:59 | 32.81109 | -117.20023 | 6226 ft | 243 kts | 110° |
| 2026-04-24 19:00 | 32.80608 | -117.18130 | 6128 ft | 241 kts | 107° |
| 2026-04-24 19:00 | 32.80285 | -117.16836 | 6051 ft | 243 kts | 106° |
| 2026-04-24 19:00 | 32.79828 | -117.14924 | 5962 ft | 234 kts | 105° |
| 2026-04-24 19:00 | 32.79418 | -117.13167 | 5963 ft | 209 kts | 106° |
| 2026-04-24 19:01 | 32.79061 | -117.11618 | 5931 ft | 188 kts | 105° |
| 2026-04-24 19:01 | 32.78709 | -117.10067 | 5896 ft | 202 kts | 105° |
| 2026-04-24 19:01 | 32.78331 | -117.08400 | 5914 ft | 217 kts | 105° |
| 2026-04-24 19:01 | 32.77925 | -117.06608 | 6003 ft | 233 kts | 105° |
| 2026-04-24 19:02 | 32.77461 | -117.04686 | 6119 ft | 251 kts | 107° |
| 2026-04-24 19:02 | 32.76961 | -117.02641 | 5928 ft | 261 kts | 106° |
| 2026-04-24 19:02 | 32.76457 | -117.00563 | 5712 ft | 262 kts | 106° |
| 2026-04-24 19:02 | 32.75947 | -116.98488 | 5481 ft | 260 kts | 108° |
| 2026-04-24 19:03 | 32.75082 | -116.96627 | 5220 ft | 259 kts | 133° |
| 2026-04-24 19:03 | 32.73599 | -116.95530 | 4906 ft | 255 kts | 162° |
| 2026-04-24 19:03 | 32.71858 | -116.95387 | 4578 ft | 251 kts | 190° |
| 2026-04-24 19:03 | 32.70313 | -116.96158 | 4285 ft | 232 kts | 217° |
| 2026-04-24 19:04 | 32.69283 | -116.97554 | 3943 ft | 223 kts | 241° |
| 2026-04-24 19:04 | 32.68815 | -116.99258 | 3603 ft | 213 kts | 263° |
| 2026-04-24 19:04 | 32.68937 | -117.00958 | 3194 ft | 200 kts | 284° |
| 2026-04-24 19:04 | 32.69321 | -117.02469 | 2935 ft | 187 kts | 284° |
| 2026-04-24 19:05 | 32.69686 | -117.03936 | 2658 ft | 184 kts | 283° |
| 2026-04-24 19:05 | 32.70047 | -117.05386 | 2381 ft | 183 kts | 284° |
| 2026-04-24 19:05 | 32.70404 | -117.06835 | 2104 ft | 182 kts | 284° |
| 2026-04-24 19:05 | 32.70753 | -117.08255 | 1884 ft | 180 kts | 284° |
| 2026-04-24 19:06 | 32.71103 | -117.09605 | 1697 ft | 162 kts | 283° |
| 2026-04-24 19:06 | 32.71407 | -117.10852 | 1456 ft | 156 kts | 283° |
| 2026-04-24 19:06 | 32.71707 | -117.12087 | 1256 ft | 154 kts | 283° |
| 2026-04-24 19:06 | 32.71999 | -117.13291 | 1040 ft | 151 kts | 284° |
| 2026-04-24 19:07 | 32.72287 | -117.14492 | 774 ft | 151 kts | 283° |
| 2026-04-24 19:07 | 32.72571 | -117.15705 | 616 ft | 151 kts | 282° |
| 2026-04-24 19:07 | 32.72859 | -117.16905 | 335 ft | 152 kts | 284° |
| 2026-04-24 19:07 | 32.73151 | -117.18113 | 84 ft | 150 kts | 283° |
| 2026-04-24 19:08 | 32.73403 | -117.19168 | 26 ft | 91 kts | 286° |
| 2026-04-24 19:08 | 32.73416 | -117.19479 | 30 ft | 15 kts | 211° |
| 2026-04-24 19:08 | 32.73347 | -117.19459 | 29 ft | 10 kts | 182° |
| 2026-04-24 19:08 | 32.73293 | -117.19478 | 28 ft | 9 kts | 225° |
| 2026-04-24 19:09 | 32.73285 | -117.19528 | 27 ft | 7 kts | 272° |
| 2026-04-24 19:09 | 32.73286 | -117.19554 | 27 ft | 0 kts | 274° |